createdAt,value
2023-04-22T00:02:14.438Z,12.10
2023-04-22T00:04:42.565Z,12.00
2023-04-22T00:07:10.614Z,12.00
2023-04-22T00:09:38.726Z,12.00
2023-04-22T00:12:06.988Z,11.90
2023-04-22T00:14:34.794Z,11.90
2023-04-22T00:17:02.763Z,11.80
2023-04-22T00:19:31.913Z,11.80
2023-04-22T00:21:59.698Z,11.80
2023-04-22T00:24:27.465Z,11.80
2023-04-22T00:26:55.286Z,11.70
2023-04-22T00:29:23.136Z,11.70
2023-04-22T00:31:51.325Z,11.60
2023-04-22T00:34:19.570Z,11.60
2023-04-22T00:36:49.462Z,11.60
2023-04-22T00:39:17.300Z,11.60
2023-04-22T00:41:45.586Z,11.60
2023-04-22T00:44:13.723Z,11.60
2023-04-22T00:46:41.590Z,11.60
2023-04-22T00:49:09.716Z,11.50
2023-04-22T00:51:37.482Z,11.50
2023-04-22T00:54:06.978Z,11.50
2023-04-22T00:56:37.384Z,11.50
2023-04-22T00:59:05.448Z,11.40
2023-04-22T01:01:33.966Z,11.30
2023-04-22T01:04:02.539Z,11.40
2023-04-22T01:06:31.372Z,11.50
2023-04-22T01:08:59.567Z,11.40
2023-04-22T01:11:28.738Z,11.30
2023-04-22T01:13:56.532Z,11.20
2023-04-22T01:16:25.033Z,11.20
2023-04-22T01:18:52.941Z,11.30
2023-04-22T01:21:20.740Z,11.30
2023-04-22T01:23:51.053Z,11.30
2023-04-22T01:26:18.815Z,11.30
2023-04-22T01:28:46.956Z,11.30
2023-04-22T01:31:14.816Z,11.30
2023-04-22T01:33:44.197Z,11.10
2023-04-22T01:36:13.252Z,11.10
2023-04-22T01:38:41.243Z,11.20
2023-04-22T01:41:10.497Z,11.20
2023-04-22T01:43:40.265Z,11.20
2023-04-22T01:46:09.480Z,11.00
2023-04-22T01:48:37.585Z,11.00
2023-04-22T01:51:05.434Z,11.00
2023-04-22T01:53:33.228Z,10.90
2023-04-22T01:56:01.184Z,10.80
2023-04-22T01:58:31.545Z,10.80
2023-04-22T02:00:59.310Z,10.80
2023-04-22T02:03:27.187Z,10.90
2023-04-22T02:05:55.112Z,10.80
2023-04-22T02:08:23.124Z,10.80
2023-04-22T02:10:50.883Z,10.80
2023-04-22T02:13:18.691Z,10.70
2023-04-22T02:15:47.897Z,10.70
2023-04-22T02:18:17.865Z,10.70
2023-04-22T02:20:45.739Z,10.70
2023-04-22T02:23:13.775Z,10.70
2023-04-22T02:25:41.647Z,10.60
2023-04-22T02:28:09.418Z,10.60
2023-04-22T02:30:37.294Z,10.60
2023-04-22T02:33:06.557Z,10.50
2023-04-22T02:35:34.357Z,10.50
2023-04-22T02:38:02.246Z,10.50
2023-04-22T02:40:30.361Z,10.50
2023-04-22T02:42:58.206Z,10.50
2023-04-22T02:45:25.967Z,10.50
2023-04-22T02:47:53.800Z,10.40
2023-04-22T02:50:23.107Z,10.30
2023-04-22T02:52:51.294Z,10.40
2023-04-22T02:55:19.122Z,10.30
2023-04-22T02:57:46.932Z,10.30
2023-04-22T03:00:15.284Z,10.20
2023-04-22T03:02:43.279Z,10.20
2023-04-22T03:05:11.474Z,10.20
2023-04-22T03:07:40.866Z,10.20
2023-04-22T03:10:09.733Z,10.20
2023-04-22T03:12:37.559Z,10.20
2023-04-22T03:15:06.076Z,10.20
2023-04-22T03:17:34.626Z,10.10
2023-04-22T03:20:02.439Z,10.10
2023-04-22T03:22:30.205Z,10.10
2023-04-22T03:24:59.308Z,10.10
2023-04-22T03:27:27.128Z,10.10
2023-04-22T03:29:54.924Z,10.10
2023-04-22T03:32:22.805Z,10.00
2023-04-22T03:34:50.623Z,10.00
2023-04-22T03:37:18.403Z,9.90
2023-04-22T03:39:46.149Z,9.90
2023-04-22T03:42:15.593Z,10.00
2023-04-22T03:44:43.398Z,10.00
2023-04-22T03:47:11.212Z,10.00
2023-04-22T03:49:39.697Z,10.00
2023-04-22T03:52:07.836Z,10.00
2023-04-22T03:54:35.835Z,9.90
2023-04-22T03:57:03.653Z,9.90
2023-04-22T03:59:32.765Z,9.80
2023-04-22T04:02:00.599Z,9.70
2023-04-22T04:04:29.378Z,9.70
2023-04-22T04:06:57.521Z,9.70
2023-04-22T04:09:25.377Z,9.70
2023-04-22T04:11:53.195Z,9.60
2023-04-22T04:14:21.006Z,9.70
2023-04-22T04:16:50.223Z,9.60
2023-04-22T04:19:18.046Z,9.60
2023-04-22T04:21:45.838Z,9.60
2023-04-22T04:24:13.629Z,9.60
2023-04-22T04:26:41.498Z,9.60
2023-04-22T04:29:09.597Z,9.60
2023-04-22T04:31:37.422Z,9.60
2023-04-22T04:34:07.254Z,9.50
2023-04-22T04:36:35.237Z,9.60
2023-04-22T04:39:03.388Z,9.50
2023-04-22T04:41:31.766Z,9.60
2023-04-22T04:44:00.556Z,9.60
2023-04-22T04:46:29.433Z,9.60
2023-04-22T04:48:58.611Z,9.60
2023-04-22T04:51:27.735Z,9.60
2023-04-22T04:53:55.569Z,9.60
2023-04-22T04:56:23.667Z,9.60
2023-04-22T04:58:51.532Z,10.70
2023-04-22T05:01:19.395Z,11.70
2023-04-22T05:03:47.346Z,12.00
2023-04-22T05:06:15.243Z,11.80
2023-04-22T05:08:44.390Z,10.80
2023-04-22T05:11:12.226Z,10.10
2023-04-22T05:13:39.950Z,9.90
2023-04-22T05:16:08.029Z,9.80
2023-04-22T05:18:36.215Z,10.70
2023-04-22T05:21:04.427Z,11.70
2023-04-22T05:23:32.217Z,12.70
2023-04-22T05:26:01.364Z,13.30
2023-04-22T05:28:29.114Z,13.50
2023-04-22T05:30:56.879Z,13.90
2023-04-22T05:33:24.662Z,14.40
2023-04-22T05:35:52.484Z,14.70
2023-04-22T05:38:20.352Z,15.00
2023-04-22T05:40:48.209Z,15.50
2023-04-22T05:43:17.557Z,16.50
2023-04-22T05:45:45.387Z,16.80
2023-04-22T05:48:13.137Z,16.90
2023-04-22T05:50:40.892Z,16.30
2023-04-22T05:53:08.654Z,16.10
2023-04-22T05:55:36.516Z,16.00
2023-04-22T05:58:04.358Z,17.00
2023-04-22T06:00:33.557Z,17.10
2023-04-22T06:03:01.378Z,16.40
2023-04-22T06:05:29.565Z,16.10
2023-04-22T06:07:57.325Z,16.10
2023-04-22T06:10:25.294Z,16.70
2023-04-22T06:12:53.048Z,17.00
2023-04-22T06:15:21.336Z,17.70
2023-04-22T06:17:50.781Z,17.70
2023-04-22T06:20:18.558Z,17.30
2023-04-22T06:22:46.358Z,17.90
2023-04-22T06:25:14.129Z,18.10
2023-04-22T06:27:41.904Z,17.80
2023-04-22T06:30:11.925Z,17.60
2023-04-22T06:32:39.771Z,17.70
2023-04-22T06:35:10.146Z,17.70
2023-04-22T06:37:37.953Z,18.30
2023-04-22T06:40:06.582Z,19.10
2023-04-22T06:42:34.355Z,19.40
2023-04-22T06:45:02.151Z,18.90
2023-04-22T06:47:29.964Z,18.60
2023-04-22T06:49:58.232Z,17.70
2023-04-22T06:52:27.333Z,18.10
2023-04-22T06:54:55.084Z,17.70
2023-04-22T06:57:22.846Z,18.30
2023-04-22T06:59:50.833Z,18.50
2023-04-22T07:02:18.977Z,18.80
2023-04-22T07:04:46.759Z,20.20
2023-04-22T07:07:14.665Z,20.00
2023-04-22T07:09:43.842Z,19.90
2023-04-22T07:12:11.732Z,19.90
2023-04-22T07:14:43.250Z,20.30
2023-04-22T07:17:11.045Z,21.10
2023-04-22T07:19:39.134Z,21.80
2023-04-22T07:22:07.258Z,21.20
2023-04-22T07:24:35.002Z,20.70
2023-04-22T07:27:04.274Z,21.20
2023-04-22T07:29:32.074Z,21.10
2023-04-22T07:31:59.878Z,20.60
2023-04-22T07:34:27.667Z,20.50
2023-04-22T07:36:55.486Z,21.10
2023-04-22T07:39:23.978Z,19.60
2023-04-22T07:41:53.084Z,19.90
2023-04-22T07:44:22.258Z,19.40
2023-04-22T07:46:50.533Z,18.40
2023-04-22T07:49:18.336Z,18.50
2023-04-22T07:51:46.294Z,18.60
2023-04-22T07:54:14.283Z,18.50
2023-04-22T07:56:42.081Z,19.30
2023-04-22T07:59:09.845Z,19.40
2023-04-22T08:01:38.995Z,18.40
2023-04-22T08:04:07.851Z,18.90
2023-04-22T08:06:35.992Z,18.70
2023-04-22T08:09:03.965Z,18.40
2023-04-22T08:11:31.777Z,18.90
2023-04-22T08:13:59.547Z,19.50
2023-04-22T08:16:27.406Z,20.00
2023-04-22T08:18:57.747Z,19.40
2023-04-22T08:21:26.460Z,18.60
2023-04-22T08:23:54.759Z,18.20
2023-04-22T08:26:22.620Z,18.20
2023-04-22T08:28:50.425Z,18.00
2023-04-22T08:31:18.227Z,19.10
2023-04-22T08:33:46.098Z,19.50
2023-04-22T08:36:16.010Z,19.40
2023-04-22T08:38:44.199Z,18.80
2023-04-22T08:41:13.121Z,19.30
2023-04-22T08:43:41.100Z,18.80
2023-04-22T08:46:08.946Z,19.20
2023-04-22T08:48:38.110Z,19.20
2023-04-22T08:51:07.582Z,18.90
2023-04-22T08:53:36.812Z,18.70
2023-04-22T08:56:11.021Z,18.80
2023-04-22T08:58:39.508Z,19.00
2023-04-22T09:01:08.750Z,19.00
2023-04-22T09:03:37.404Z,19.30
2023-04-22T09:06:06.890Z,19.50
2023-04-22T09:08:36.232Z,20.20
2023-04-22T09:11:05.141Z,19.90
2023-04-22T09:13:34.462Z,20.30
2023-04-22T09:16:02.409Z,19.50
2023-04-22T09:18:30.204Z,20.40
2023-04-22T09:20:58.086Z,19.90
2023-04-22T09:23:27.914Z,20.00
2023-04-22T09:25:58.543Z,19.60
2023-04-22T09:28:26.347Z,19.30
2023-04-22T09:30:54.148Z,19.60
2023-04-22T09:33:21.926Z,19.90
2023-04-22T09:35:49.883Z,21.20
2023-04-22T09:38:17.720Z,21.30
2023-04-22T09:40:46.533Z,22.20
2023-04-22T09:43:19.702Z,21.70
2023-04-22T09:45:47.566Z,20.60
2023-04-22T09:48:18.223Z,20.30
2023-04-22T09:50:48.445Z,21.20
2023-04-22T09:53:18.307Z,21.30
2023-04-22T09:55:47.827Z,21.90
2023-04-22T09:58:18.307Z,21.20
2023-04-22T10:00:48.605Z,21.20
2023-04-22T10:03:17.250Z,22.30
2023-04-22T10:05:45.989Z,21.90
2023-04-22T10:11:01.545Z,21.30
2023-04-22T10:13:31.013Z,21.60
2023-04-22T10:15:59.107Z,21.30
2023-04-22T10:18:29.311Z,21.20
2023-04-22T10:20:58.611Z,21.20
2023-04-22T10:23:26.602Z,21.10
2023-04-22T10:25:55.746Z,21.40
2023-04-22T10:28:25.764Z,21.40
2023-04-22T10:30:55.013Z,21.70
2023-04-22T10:33:39.164Z,21.60
2023-04-22T10:36:11.970Z,21.20
2023-04-22T10:38:42.458Z,21.60
2023-04-22T10:41:15.555Z,21.50
2023-04-22T10:43:45.464Z,21.70
2023-04-22T10:46:50.587Z,21.70
2023-04-22T10:49:22.170Z,21.30
2023-04-22T10:51:51.693Z,21.50
2023-04-22T10:54:56.662Z,21.70
2023-04-22T10:57:31.094Z,21.20
2023-04-22T11:00:00.330Z,21.20
2023-04-22T11:02:28.436Z,21.30
2023-04-22T11:05:20.681Z,20.90
2023-04-22T11:07:50.486Z,21.00
2023-04-22T11:10:37.204Z,21.40
2023-04-22T11:13:07.057Z,21.70
2023-04-22T11:15:37.053Z,21.50
2023-04-22T11:18:08.629Z,21.60
2023-04-22T11:20:37.998Z,21.30
2023-04-22T11:23:06.262Z,21.10
2023-04-22T11:25:34.095Z,21.20
2023-04-22T11:28:01.910Z,22.00
2023-04-22T11:30:31.406Z,21.50
2023-04-22T11:33:00.931Z,21.50
2023-04-22T11:35:31.924Z,21.60
2023-04-22T11:38:05.385Z,21.30
2023-04-22T11:40:37.803Z,21.00
2023-04-22T11:43:08.406Z,21.50
2023-04-22T11:45:38.932Z,21.50
2023-04-22T11:48:08.024Z,21.50
2023-04-22T11:50:38.401Z,21.10
2023-04-22T11:53:15.338Z,21.20
2023-04-22T11:55:44.355Z,21.60
2023-04-22T11:58:14.984Z,21.80
2023-04-22T12:00:45.874Z,21.90
2023-04-22T12:03:18.510Z,21.80
2023-04-22T12:05:48.254Z,22.00
2023-04-22T12:08:20.199Z,22.10
2023-04-22T12:10:49.873Z,22.20
2023-04-22T12:13:21.771Z,21.80
2023-04-22T12:15:54.030Z,21.70
2023-04-22T12:18:30.618Z,21.70
2023-04-22T12:21:01.652Z,21.50
2023-04-22T12:23:31.481Z,21.50
2023-04-22T12:25:59.309Z,21.80
2023-04-22T12:28:27.100Z,22.00
2023-04-22T12:30:54.901Z,21.50
2023-04-22T12:33:22.923Z,21.80
2023-04-22T12:35:52.543Z,21.80
2023-04-22T12:38:20.822Z,22.30
2023-04-22T12:40:50.960Z,22.30
2023-04-22T12:43:19.037Z,22.10
2023-04-22T12:45:47.239Z,22.10
2023-04-22T12:48:15.116Z,21.90
2023-04-22T12:50:43.246Z,21.80
2023-04-22T12:53:11.163Z,21.70
2023-04-22T12:55:39.120Z,21.80
2023-04-22T12:58:08.377Z,21.80
2023-04-22T13:00:36.162Z,21.90
2023-04-22T13:03:04.211Z,22.10
2023-04-22T13:05:32.187Z,22.00
2023-04-22T13:08:07.309Z,21.90
2023-04-22T13:10:36.494Z,21.80
2023-04-22T13:13:17.578Z,22.20
2023-04-22T13:15:47.837Z,22.40
2023-04-22T13:18:16.975Z,21.90
2023-04-22T13:20:44.946Z,22.00
2023-04-22T13:23:14.287Z,22.30
2023-04-22T13:25:42.108Z,22.00
2023-04-22T13:28:11.210Z,22.00
2023-04-22T13:30:39.033Z,21.90
2023-04-22T13:33:08.522Z,22.00
2023-04-22T13:35:37.015Z,22.00
2023-04-22T13:38:05.020Z,22.10
2023-04-22T13:40:32.926Z,22.40
2023-04-22T13:43:00.817Z,22.20
2023-04-22T13:45:28.615Z,21.90
2023-04-22T13:47:56.490Z,22.30
2023-04-22T13:50:28.138Z,22.50
2023-04-22T13:52:56.430Z,21.80
2023-04-22T13:55:24.241Z,21.50
2023-04-22T13:57:52.526Z,21.50
2023-04-22T14:00:20.649Z,22.00
2023-04-22T14:02:48.904Z,22.20
2023-04-22T14:05:16.991Z,22.30
2023-04-22T14:07:46.461Z,22.10
2023-04-22T14:10:14.268Z,22.10
2023-04-22T14:12:42.074Z,22.20
2023-04-22T14:15:11.448Z,22.10
2023-04-22T14:17:39.885Z,22.20
2023-04-22T14:20:10.818Z,22.10
2023-04-22T14:22:38.853Z,22.30
2023-04-22T14:25:09.331Z,22.10
2023-04-22T14:27:37.211Z,22.30
2023-04-22T14:30:08.988Z,22.00
2023-04-22T14:32:37.204Z,22.30
2023-04-22T14:35:05.566Z,22.40
2023-04-22T14:37:33.498Z,22.30
2023-04-22T14:40:01.557Z,21.80
2023-04-22T14:42:31.008Z,21.40
2023-04-22T14:44:58.844Z,21.50
2023-04-22T14:47:26.815Z,21.40
2023-04-22T14:49:54.612Z,21.50
2023-04-22T14:52:36.803Z,21.60
2023-04-22T14:58:35.096Z,21.30
2023-04-22T15:01:04.682Z,21.10
2023-04-22T15:03:35.146Z,21.00
2023-04-22T15:06:03.380Z,20.90
2023-04-22T15:08:31.192Z,21.00
2023-04-22T15:10:59.604Z,20.90
2023-04-22T15:13:28.804Z,21.00
2023-04-22T15:15:56.605Z,20.90
2023-04-22T15:18:24.880Z,20.90
2023-04-22T15:20:52.686Z,20.80
2023-04-22T15:23:20.447Z,20.90
2023-04-22T15:25:48.231Z,20.90
2023-04-22T15:28:16.069Z,20.90
2023-04-22T15:30:45.696Z,21.10
2023-04-22T15:33:14.023Z,21.00
2023-04-22T15:35:45.142Z,21.10
2023-04-22T15:38:13.105Z,21.00
2023-04-22T15:40:40.978Z,20.90
2023-04-22T15:43:08.885Z,21.10
2023-04-22T15:45:36.666Z,21.00
2023-04-22T15:48:06.490Z,20.90
2023-04-22T15:50:34.451Z,20.90
2023-04-22T15:53:02.283Z,20.80
2023-04-22T15:55:30.047Z,20.90
2023-04-22T15:57:57.867Z,20.70
2023-04-22T16:00:28.632Z,20.70
2023-04-22T16:02:56.573Z,20.70
2023-04-22T16:05:26.227Z,20.70
2023-04-22T16:07:54.593Z,20.60
2023-04-22T16:10:22.821Z,20.50
2023-04-22T16:12:50.786Z,20.40
2023-04-22T16:15:18.760Z,20.40
2023-04-22T16:17:46.585Z,20.30
2023-04-22T16:20:14.360Z,20.30
2023-04-22T16:22:43.489Z,20.30
2023-04-22T16:25:11.290Z,20.30
2023-04-22T16:27:39.063Z,20.40
2023-04-22T16:30:08.018Z,20.40
2023-04-22T16:32:35.822Z,20.40
2023-04-22T16:35:04.308Z,20.30
2023-04-22T16:37:32.372Z,20.40
2023-04-22T16:40:01.730Z,20.30
2023-04-22T16:42:30.069Z,20.30
2023-04-22T16:44:57.904Z,20.20
2023-04-22T16:47:26.250Z,20.20
2023-04-22T16:49:54.283Z,20.10
2023-04-22T16:52:22.084Z,20.10
2023-04-22T16:54:51.387Z,20.10
2023-04-22T16:57:20.531Z,20.10
2023-04-22T16:59:48.319Z,19.90
2023-04-22T17:02:16.163Z,19.80
2023-04-22T17:04:44.063Z,19.80
2023-04-22T17:07:11.892Z,19.80
2023-04-22T17:09:39.919Z,19.80
2023-04-22T17:12:08.040Z,19.70
2023-04-22T17:14:37.229Z,19.70
2023-04-22T17:17:05.078Z,19.70
2023-04-22T17:19:32.896Z,19.70
2023-04-22T17:22:01.595Z,19.50
2023-04-22T17:24:30.350Z,19.50
2023-04-22T17:26:58.375Z,19.40
2023-04-22T17:29:26.227Z,19.50
2023-04-22T17:31:55.477Z,19.40
2023-04-22T17:34:23.321Z,19.40
2023-04-22T17:36:51.069Z,19.30
2023-04-22T17:39:19.592Z,19.20
2023-04-22T17:41:47.315Z,19.10
2023-04-22T17:44:15.147Z,19.10
2023-04-22T17:46:42.981Z,19.10
2023-04-22T17:49:12.109Z,19.00
2023-04-22T17:51:39.930Z,19.00
2023-04-22T17:54:07.786Z,19.00
2023-04-22T17:56:35.772Z,18.90
2023-04-22T17:59:03.527Z,19.00
2023-04-22T18:01:31.654Z,19.00
2023-04-22T18:03:59.943Z,19.10
2023-04-22T18:06:29.165Z,19.10
2023-04-22T18:08:56.969Z,19.10
2023-04-22T18:11:24.762Z,19.10
2023-04-22T18:13:52.515Z,19.10
2023-04-22T18:16:20.629Z,19.10
2023-04-22T18:18:48.504Z,19.10
2023-04-22T18:21:16.309Z,19.00
2023-04-22T18:23:45.587Z,19.00
2023-04-22T18:26:13.372Z,19.00
2023-04-22T18:28:43.307Z,18.90
2023-04-22T18:31:11.134Z,18.90
2023-04-22T18:33:38.927Z,18.80
2023-04-22T18:36:07.390Z,18.70
2023-04-22T18:38:35.263Z,18.70
2023-04-22T18:41:04.362Z,18.60
2023-04-22T18:43:32.202Z,18.70
2023-04-22T18:46:00.014Z,18.60
2023-04-22T18:48:27.932Z,18.60
2023-04-22T18:50:55.831Z,18.60
2023-04-22T18:53:23.670Z,18.50
2023-04-22T18:55:51.576Z,18.50
2023-04-22T18:58:22.941Z,18.50
2023-04-22T19:00:51.402Z,18.50
2023-04-22T19:03:19.452Z,18.50
2023-04-22T19:05:47.467Z,18.40
2023-04-22T19:08:15.238Z,18.40
2023-04-22T19:10:42.998Z,18.30
2023-04-22T19:13:22.407Z,18.40
2023-04-22T19:15:58.633Z,18.30
2023-04-22T19:18:26.711Z,18.30
2023-04-22T19:20:54.566Z,18.20
2023-04-22T19:23:23.032Z,18.30
2023-04-22T19:25:51.536Z,18.20
2023-04-22T19:28:19.433Z,18.20
2023-04-22T19:30:47.246Z,18.20
2023-04-22T19:33:16.618Z,18.20
2023-04-22T19:35:44.588Z,18.10
2023-04-22T19:38:16.083Z,18.10
2023-04-22T19:40:43.816Z,18.10
2023-04-22T19:43:11.582Z,18.10
2023-04-22T19:45:39.378Z,18.00
2023-04-22T19:48:07.998Z,18.10
2023-04-22T19:50:37.531Z,18.00
2023-04-22T19:53:07.116Z,18.00
2023-04-22T19:55:36.130Z,18.00
2023-04-22T19:58:04.202Z,17.90
2023-04-22T20:00:32.885Z,18.00
2023-04-22T20:03:01.179Z,17.80
2023-04-22T20:05:29.719Z,17.90
2023-04-22T20:07:59.706Z,17.80
2023-04-22T20:10:28.684Z,17.90
2023-04-22T20:12:56.976Z,17.90
2023-04-22T20:15:25.022Z,17.70
2023-04-22T20:17:53.877Z,17.70
2023-04-22T20:20:21.894Z,17.60
2023-04-22T20:22:50.963Z,17.60
2023-04-22T20:25:20.275Z,17.60
2023-04-22T20:27:48.870Z,17.60
2023-04-22T20:30:17.021Z,17.70
2023-04-22T20:32:45.074Z,17.60
2023-04-22T20:35:14.892Z,17.50
2023-04-22T20:37:43.642Z,17.40
2023-04-22T20:40:14.944Z,17.40
2023-04-22T20:42:44.155Z,17.30
2023-04-22T20:45:15.467Z,17.30
2023-04-22T20:47:43.843Z,17.10
2023-04-22T20:50:13.010Z,17.10
2023-04-22T20:52:41.100Z,17.00
2023-04-22T20:55:09.494Z,17.00
2023-04-22T20:57:37.553Z,17.10
2023-04-22T21:00:08.861Z,17.10
2023-04-22T21:02:37.266Z,17.10
2023-04-22T21:05:06.584Z,17.00
2023-04-22T21:07:35.659Z,17.10
2023-04-22T21:10:03.727Z,17.10
2023-04-22T21:12:33.021Z,17.00
2023-04-22T21:15:01.548Z,17.00
2023-04-22T21:17:32.629Z,17.00
2023-04-22T21:20:02.497Z,16.90
2023-04-22T21:22:31.683Z,16.90
2023-04-22T21:24:59.991Z,17.00
2023-04-22T21:27:28.190Z,16.90
2023-04-22T21:29:56.950Z,16.90
2023-04-22T21:32:24.738Z,16.90
2023-04-22T21:34:53.890Z,16.80
2023-04-22T21:37:21.730Z,16.80
2023-04-22T21:39:49.474Z,16.70
2023-04-22T21:42:17.246Z,16.70
2023-04-22T21:44:49.497Z,16.70
2023-04-22T21:47:17.532Z,16.70
2023-04-22T21:49:45.907Z,16.70
2023-04-22T21:52:15.127Z,16.70
2023-04-22T21:54:43.102Z,16.60
2023-04-22T21:57:11.093Z,16.60
2023-04-22T21:59:38.932Z,16.50
2023-04-22T22:02:06.730Z,16.50
2023-04-22T22:04:34.956Z,16.40
2023-04-22T22:07:03.107Z,16.40
2023-04-22T22:09:32.855Z,16.40
2023-04-22T22:12:01.704Z,16.40
2023-04-22T22:14:29.454Z,16.40
2023-04-22T22:16:57.338Z,16.40
2023-04-22T22:19:27.706Z,16.30
2023-04-22T22:21:55.708Z,16.30
2023-04-22T22:24:23.567Z,16.30
2023-04-22T22:26:52.691Z,16.30
2023-04-22T22:29:20.603Z,16.20
2023-04-22T22:31:48.405Z,16.20
2023-04-22T22:34:16.213Z,16.20
2023-04-22T22:36:44.022Z,16.20
2023-04-22T22:39:14.305Z,16.20
2023-04-22T22:41:43.868Z,16.10
2023-04-22T22:44:13.276Z,16.10
2023-04-22T22:46:41.218Z,16.20
2023-04-22T22:49:09.133Z,16.10
2023-04-22T22:51:37.350Z,16.10
2023-04-22T22:54:05.640Z,16.00
2023-04-22T22:56:36.664Z,16.00
2023-04-22T23:01:47.771Z,16.00
2023-04-22T23:04:16.122Z,15.90
2023-04-22T23:06:44.118Z,16.00
2023-04-22T23:09:11.932Z,16.00
2023-04-22T23:11:39.728Z,15.90
2023-04-22T23:14:09.522Z,15.90
2023-04-22T23:16:39.023Z,15.90
2023-04-22T23:19:08.611Z,15.90
2023-04-22T23:21:37.309Z,15.90
2023-04-22T23:24:05.966Z,15.80
2023-04-22T23:26:34.987Z,15.90
2023-04-22T23:29:03.336Z,15.90
2023-04-22T23:31:32.538Z,15.90
2023-04-22T23:34:02.502Z,15.80
2023-04-22T23:36:33.470Z,15.80
2023-04-22T23:39:01.714Z,15.70
2023-04-22T23:41:29.508Z,15.70
2023-04-22T23:43:57.375Z,15.60
2023-04-22T23:46:25.322Z,15.60
2023-04-22T23:48:53.268Z,15.70
2023-04-22T23:51:21.175Z,15.70
2023-04-22T23:53:50.300Z,15.60
2023-04-22T23:56:21.062Z,15.60
2023-04-22T23:58:49.537Z,15.60
